• Join FlightAware (Why Join?)
  • Login
  • US Flag 
09:13PM EDT


 

Airport Tracker/Info


-or-


 

Live Flight TrackerFlight Track Log ✈ N589H ✈ 24-Mar-2014 ✈ KPIE - TNCA / AUA

Flight Track Log - Related Links

Times and Time Zones

All times are in EDT time to prevent confusion due to time zone crossing. See the N589H flight status page for this flight to view local times or setup timezone preferences in your user account.

Time Position Orientation Groundspeed Altitude Reporting Facility
EDT Latitude Longitude Course Direction KTS MPH feet Rate Location/Type
07:41AM 27.9333 -82.7000 270° West 152 175 600  Level Tampa TRACON
07:42AM 27.9333 -82.7167 270° West 176 203 1,300 1,560 Climbing Tampa TRACON
07:43AM 27.9167 -82.7833 254° West 195 224 3,100 1,680 Climbing Tampa TRACON
07:45AM 27.8169 -82.7489 163° South 226 260 6,300 1,800 Climbing Miami Center
07:46AM 27.7531 -82.7267 163° South 231 266 8,300 2,220 Climbing Miami Center
07:47AM 27.6936 -82.7025 160° South 231 266 10,800 2,400 Climbing Miami Center
07:48AM 27.6428 -82.6719 152° Southeast 231 266 13,100 2,040 Climbing Miami Center
07:49AM 27.6033 -82.6089 125° Southeast 223 257 14,900 1,500 Climbing Miami Center
07:50AM 27.5581 -82.5411 127° Southeast 247 284 16,200 1,320 Climbing Miami Center
07:51AM 27.5089 -82.4686 127° Southeast 273 314 17,600 1,320 Climbing Miami Center
07:52AM 27.4614 -82.4031 129° Southeast 291 335 18,900 1,380 Climbing Miami Center
07:53AM 27.4100 -82.3233 126° Southeast 291 335 20,400 1,200 Climbing Miami Center
07:54AM 27.3606 -82.2511 128° Southeast 291 335 21,400 900 Climbing Miami Center
07:55AM 27.3092 -82.1739 127° Southeast 296 341 22,300 900 Climbing Miami Center
07:56AM 27.2597 -82.1014 127° Southeast 314 361 23,300 960 Climbing Miami Center
07:57AM 27.2042 -82.0219 128° Southeast 321 369 24,300 1,020 Climbing Miami Center
07:58AM 27.1406 -81.9281 127° Southeast 337 388 25,400 1,020 Climbing Miami Center
07:59AM 27.0811 -81.8439 128° Southeast 337 388 26,400 960 Climbing Miami Center
08:00AM 27.0233 -81.7575 127° Southeast 337 388 27,400 900 Climbing Miami Center
08:01AM 26.9617 -81.6689 128° Southeast 342 394 28,200 720 Climbing Miami Center
08:02AM 26.8997 -81.5800 128° Southeast 362 417 28,900 660 Climbing Miami Center
08:03AM 26.8361 -81.4867 127° Southeast 369 425 29,600 660 Climbing Miami Center
08:04AM 26.7681 -81.3911 129° Southeast 381 438 30,300 660 Climbing Miami Center
08:05AM 26.7081 -81.3050 128° Southeast 381 438 31,000 600 Climbing Miami Center
08:06AM 26.6442 -81.2097 127° Southeast 381 438 31,600 660 Climbing Miami Center
08:07AM 26.5719 -81.1072 128° Southeast 386 444 32,400 720 Climbing Miami Center
08:08AM 26.5036 -81.0142 129° Southeast 386 444 33,100 660 Climbing Miami Center
08:09AM 26.4375 -80.9192 128° Southeast 386 444 33,800 660 Climbing Miami Center
08:10AM 26.3731 -80.8289 129° Southeast 381 438 34,500 600 Climbing Miami Center
08:11AM 26.3067 -80.7339 128° Southeast 381 438 35,100 600 Climbing Miami Center
08:12AM 26.2444 -80.6439 128° Southeast 381 438 35,700 600 Climbing Miami Center
08:13AM 26.1819 -80.5517 127° Southeast 376 433 36,300 420 Climbing Miami Center
08:14AM 26.1194 -80.4642 128° Southeast 376 433 36,600 240 Climbing Miami Center
08:15AM 26.0569 -80.3719 127° Southeast 376 433 36,800 180 Climbing Miami Center
08:16AM 25.9903 -80.2822 130° Southeast 376 433 37,000 60 Climbing Miami Center
08:17AM 25.9233 -80.1856 128° Southeast 376 433 37,000  Level Miami Center
08:19AM 25.7936 -80.0067 129° Southeast 386 444 37,000  Level Miami Center
08:20AM 25.7247 -79.9128 129° Southeast 386 444 37,000  Level Miami Center
08:21AM 25.6575 -79.8186 128° Southeast 386 444 37,000  Level Miami Center
08:22AM 25.5886 -79.7225 128° Southeast 386 444 37,000  Level Miami Center
08:25AM 25.3786 -79.4372 130° Southeast 391 450 37,000  Level Miami Center
08:26AM 25.3092 -79.3392 128° Southeast 396 456 37,000  Level Miami Center
08:27AM 25.2397 -79.2436 129° Southeast 401 461 37,000  Level Miami Center
08:28AM 25.1681 -79.1481 130° Southeast 401 461 37,000  Level Miami Center
08:29AM 25.0964 -79.0525 130° Southeast 401 461 37,000  Level Miami Center
08:30AM 25.0289 -78.9550 127° Southeast 401 461 37,000  Level Miami Center
08:31AM 24.9569 -78.8622 131° Southeast 401 461 37,000  Level Miami Center
08:32AM 24.8853 -78.7647 129° Southeast 401 461 37,000  Level Miami Center
08:33AM 24.8175 -78.6722 129° Southeast 401 461 37,000  Level Miami Center
08:34AM 24.7453 -78.5750 129° Southeast 401 461 37,000  Level Miami Center
08:35AM 24.6733 -78.4781 129° Southeast 401 461 37,000  Level Miami Center
08:36AM 24.6033 -78.3833 129° Southeast 401 461 37,000  Level Miami Center
08:37AM 24.5333 -78.2867 129° Southeast 401 461 37,000  Level Miami Center
08:38AM 24.4631 -78.1944 130° Southeast 401 461 37,000  Level Miami Center
08:39AM 24.3947 -78.1025 129° Southeast 401 461 37,000  Level Miami Center
08:40AM 24.3225 -78.0058 129° Southeast 401 461 37,000  Level Miami Center
08:41AM 24.2522 -77.9119 129° Southeast 401 461 37,000  Level Miami Center
08:42AM 24.1817 -77.8178 129° Southeast 401 461 37,000  Level Miami Center
08:43AM 24.1111 -77.7239 129° Southeast 401 461 37,000  Level Miami Center
08:44AM 24.0406 -77.6325 130° Southeast 401 461 37,000  Level Miami Center
08:45AM 23.9722 -77.5367 128° Southeast 401 461 37,000  Level Miami Center
08:46AM 23.9014 -77.4453 130° Southeast 401 461 37,000  Level Miami Center
08:47AM 23.8328 -77.3542 129° Southeast 395 455 37,000  Level Miami Center
08:48AM 23.7619 -77.2653 131° Southeast 395 455 37,000  Level Miami Center
08:49AM 23.6911 -77.1719 130° Southeast 395 455 37,000  Level Miami Center
08:50AM 23.6203 -77.0789 130° Southeast 390 449 37,000  Level Miami Center
08:51AM 23.5536 -76.9858 128° Southeast 390 449 37,000  Level Miami Center
08:52AM 23.4825 -76.8928 130° Southeast 390 449 37,000  Level Miami Center
08:53AM 23.4114 -76.8022 131° Southeast 390 449 37,000  Level Miami Center
08:54AM 23.3403 -76.7097 130° Southeast 390 449 37,000  Level Miami Center
08:55AM 23.2733 -76.6169 128° Southeast 390 449 37,000  Level Miami Center
08:56AM 23.2064 -76.5222 128° Southeast 396 456 37,000  Level Miami Center
08:57AM 23.1411 -76.4272 127° Southeast 396 456 37,000  Level Miami Center
08:58AM 23.0742 -76.3328 128° Southeast 391 450 37,000  Level Miami Center
08:59AM 23.0089 -76.2383 127° Southeast 391 450 37,000  Level Miami Center
09:00AM 22.9436 -76.1461 128° Southeast 391 450 37,000  Level Miami Center
09:01AM 22.8786 -76.0539 127° Southeast 391 450 37,000  Level Miami Center
09:02AM 22.8111 -75.9597 128° Southeast 391 450 37,000  Level Miami Center
09:03AM 22.7478 -75.8700 127° Southeast 391 450 37,000  Level Miami Center
09:04AM 22.6844 -75.7783 127° Southeast 391 450 37,000  Level Miami Center
09:05AM 22.6169 -75.6867 129° Southeast 391 450 37,000  Level Miami Center
09:06AM 22.5536 -75.5950 127° Southeast 391 450 37,000  Level Miami Center
09:07AM 22.4881 -75.5011 127° Southeast 391 450 37,000  Level Miami Center
09:08AM 22.4225 -75.4119 128° Southeast 391 450 37,000  Level Miami Center
09:09AM 22.3567 -75.3161 127° Southeast 391 450 37,000  Level Miami Center
09:10AM 22.2911 -75.2272 129° Southeast 391 450 37,000  Level Miami Center
09:11AM 22.2253 -75.1358 128° Southeast 391 450 37,000  Level Miami Center
09:12AM 22.1594 -75.0472 129° Southeast 391 450 37,000  Level Miami Center
09:13AM 22.0792 -74.9742 140° Southeast 380 437 37,000  Level Miami Center
09:14AM 21.9969 -74.9017 141° Southeast 374 430 37,000  Level Miami Center
09:15AM 21.9186 -74.8267 138° Southeast 379 436 37,000  Level Miami Center
09:16AM 21.8403 -74.7539 139° Southeast 384 442 37,000  Level Miami Center
09:17AM 21.7578 -74.6817 141° Southeast 384 442 37,000  Level Miami Center
09:18AM 21.6817 -74.6069 138° Southeast 384 442 37,000  Level Miami Center
09:19AM 21.6011 -74.5322 139° Southeast 384 442 37,000  Level Miami Center
09:20AM 21.5206 -74.4556 138° Southeast 384 442 37,000  Level Miami Center
09:21AM 21.4400 -74.3833 140° Southeast 384 442 37,000  Level Miami Center
09:22AM 21.3575 -74.3092 140° Southeast 384 442 37,000  Level Miami Center
09:23AM 21.2769 -74.2350 139° Southeast 384 442 37,000  Level Miami Center
09:24AM 21.1983 -74.1653 140° Southeast 384 442 37,000  Level Miami Center
09:25AM 21.1158 -74.0914 140° Southeast 384 442 37,000  Level Miami Center
09:26AM 21.0372 -74.0194 139° Southeast 379 436 37,000  Level Miami Center
09:27AM 20.9586 -73.9500 140° Southeast 379 436 37,000  Level Miami Center
09:28AM 20.8781 -73.8764 140° Southeast 384 442 37,000  Level Miami Center
09:29AM 20.7994 -73.8047 140° Southeast 384 442 37,000  Level Miami Center
09:30AM 20.7186 -73.7333 140° Southeast 384 442 37,000  Level Miami Center
09:31AM 20.6419 -73.6619 139° Southeast 384 442 37,000  Level Miami Center
09:32AM 20.5614 -73.5908 140° Southeast 384 442 37,000  Level Miami Center
09:33AM 20.4847 -73.5194 139° Southeast 384 442 37,000  Level Miami Center
09:34AM 20.4017 -73.4486 141° Southeast 378 435 37,000  Level Miami Center
09:35AM 20.3167 -73.3733 140° Southeast 378 435 37,000  Level Miami Center
09:36AM 20.2442 -73.3067 139° Southeast 378 435 37,000  Level Miami Center
09:37AM 20.1633 -73.2358 141° Southeast 378 435 37,000  Level Miami Center
09:39AM 20.0015 -73.1386 151° Southeast  Level FlightAware Approximate
09:46AM 19.3931 -72.7950 153° Southeast  Level FlightAware Approximate
09:47AM 19.3056 -72.7471 153° Southeast  Level FlightAware Approximate
09:48AM 19.2181 -72.6993 153° Southeast  Level FlightAware Approximate
09:49AM 19.1306 -72.6516 153° Southeast  Level FlightAware Approximate
09:50AM 19.0433 -72.6035 152° Southeast  Level FlightAware Approximate
09:51AM 18.9563 -72.5547 152° Southeast  Level FlightAware Approximate
09:52AM 18.8693 -72.5060 152° Southeast  Level FlightAware Approximate
09:53AM 18.7823 -72.4573 152° Southeast  Level FlightAware Approximate
09:54AM 18.6953 -72.4087 152° Southeast  Level FlightAware Approximate
09:55AM 18.6080 -72.3607 153° Southeast  Level FlightAware Approximate
09:56AM 18.5203 -72.3135 153° Southeast  Level FlightAware Approximate
09:57AM 18.4327 -72.2662 148° Southeast  Level FlightAware Approximate
09:58AM 18.3495 -72.2107 148° Southeast  Level FlightAware Approximate
09:59AM 18.2663 -72.1552 148° Southeast  Level FlightAware Approximate
10:00AM 18.1831 -72.0998 148° Southeast  Level FlightAware Approximate
10:01AM 18.0988 -72.0465 151° Southeast  Level FlightAware Approximate
10:02AM 18.0127 -71.9962 151° Southeast  Level FlightAware Approximate
10:03AM 17.9267 -71.9458 149° Southeast  Level FlightAware Approximate
10:04AM 17.8426 -71.8921 149° Southeast  Level FlightAware Approximate
10:05AM 17.7584 -71.8385 149° Southeast  Level FlightAware Approximate
10:06AM 17.6742 -71.7850 149° Southeast  Level FlightAware Approximate
10:07AM 17.5900 -71.7315 149° Southeast  Level FlightAware Approximate
10:08AM 17.5083 -71.6746 150° Southeast  Level FlightAware Approximate
10:09AM 17.4232 -71.6227 150° Southeast  Level FlightAware Approximate
10:10AM 17.3381 -71.5709 150° Southeast  Level FlightAware Approximate
10:11AM 17.2530 -71.5191 150° Southeast  Level FlightAware Approximate
10:12AM 17.1678 -71.4674 150° Southeast  Level FlightAware Approximate
10:13AM 17.0833 -71.4145 149° Southeast  Level FlightAware Approximate
10:14AM 16.9988 -71.3617 149° Southeast  Level FlightAware Approximate
10:15AM 16.9143 -71.3089 149° Southeast  Level FlightAware Approximate
10:16AM 16.8295 -71.2567 150° Southeast  Level FlightAware Approximate
10:17AM 16.7446 -71.2046 150° Southeast  Level FlightAware Approximate
10:18AM 16.6597 -71.1525 150° Southeast  Level FlightAware Approximate
10:19AM 16.5748 -71.1006 150° Southeast  Level FlightAware Approximate
10:20AM 16.4898 -71.0486 150° Southeast  Level FlightAware Approximate
10:21AM 16.4049 -70.9967 150° Southeast  Level FlightAware Approximate
10:22AM 16.3200 -70.9448 150° Southeast  Level FlightAware Approximate
10:23AM 16.2350 -70.8930 150° Southeast  Level FlightAware Approximate
10:24AM 16.1500 -70.8413 150° Southeast  Level FlightAware Approximate
10:25AM 16.0650 -70.7896 150° Southeast  Level FlightAware Approximate
10:26AM 15.9790 -70.7400 155° Southeast  Level FlightAware Approximate
10:27AM 15.8894 -70.6975 155° Southeast  Level FlightAware Approximate
10:28AM 15.7999 -70.6550 155° Southeast  Level FlightAware Approximate
10:29AM 15.7103 -70.6126 155° Southeast  Level FlightAware Approximate
10:30AM 15.6207 -70.5702 155° Southeast  Level FlightAware Approximate
10:31AM 15.5311 -70.5278 156° South  Level FlightAware Approximate
10:32AM 15.4415 -70.4855 156° South  Level FlightAware Approximate
10:33AM 15.3519 -70.4432 156° South  Level FlightAware Approximate
10:34AM 15.2623 -70.4009 156° South  Level FlightAware Approximate
10:35AM 15.1727 -70.3587 156° South  Level FlightAware Approximate
10:36AM 15.0830 -70.3165 157° South  Level FlightAware Approximate
10:37AM 14.9921 -70.2775 157° South  Level FlightAware Approximate
10:38AM 14.9011 -70.2385 158° South  Level FlightAware Approximate
10:39AM 14.8137 -70.1925 147° Southeast  Level FlightAware Approximate
10:40AM 14.7261 -70.1463 154° Southeast  Level FlightAware Approximate
10:41AM 14.6374 -70.1021 154° Southeast  Level FlightAware Approximate
10:42AM 14.5448 -70.0678 161° South  Level FlightAware Approximate
10:43AM 14.4519 -70.0340 161° South  Level FlightAware Approximate
10:44AM 14.3631 -70.0000 180° South  Level FlightAware Approximate
10:45AM 14.2646 -70.0000 180° South  Level FlightAware Approximate
10:46AM 14.1662 -70.0000 180° South  Level FlightAware Approximate
10:47AM 14.0679 -69.9954 177° South  Level FlightAware Approximate
10:48AM 13.9696 -69.9900 177° South  Level FlightAware Approximate
10:49AM 13.8713 -69.9845 177° South  Level FlightAware Approximate
10:50AM 13.7729 -69.9793 177° South  Level FlightAware Approximate
10:51AM 13.6746 -69.9741 177° South  Level FlightAware Approximate
10:52AM 13.5763 -69.9689 177° South  Level FlightAware Approximate
10:53AM 13.4779 -69.9667 180° South  Level FlightAware Approximate
10:54AM 13.3794 -69.9667 180° South  Level FlightAware Approximate
10:55AM 13.2810 -69.9667 180° South  Level FlightAware Approximate
10:56AM 13.1827 -69.9633 174° South  Level FlightAware Approximate
10:57AM 13.0847 -69.9535 174° South  Level FlightAware Approximate
10:58AM 12.9864 -69.9500 180° South  Level FlightAware Approximate
10:59AM 12.8880 -69.9500 180° South  Level FlightAware Approximate
11:00AM 12.7895 -69.9500 180° South  Level FlightAware Approximate
11:01AM 12.6932 -69.9366 162° South  Level FlightAware Approximate
11:02AM 12.5952 -69.9333 180° South  Level FlightAware Approximate
11:03AM 12.5000 -69.9366 270° West  Level FlightAware Approximate
11:04AM 12.5000 -70.0167 270° West  Level FlightAware Approximate
11:05AM 12.5014 -70.0152 270° West  Level Estimated
11:06AM 12.5000 -70.0167 270° West  Level FlightAware Approximate
11:07AM 12.5014 -70.0152 270° West  Level Estimated
11:08AM 12.5000 -70.0167 270° West  Level FlightAware Approximate
11:09AM 12.5014 -70.0152 270° West  Level Estimated
11:10AM 12.5000 -70.0167 270° West  Level FlightAware Approximate
11:11AM 12.5014 -70.0152 270° West  Level Estimated
11:12AM 12.5000 -70.0167 270° West  Level FlightAware Approximate
11:13AM 12.5014 -70.0152 270° West  Level Estimated
11:14AM 12.5000 -70.0167 270° West  Level FlightAware Approximate
11:15AM 12.5014 -70.0152 270° West  Level Estimated
11:16AM 12.5000 -70.0167 270° West  Level FlightAware Approximate
11:17AM 12.5014 -70.0152 270° West  Level Estimated
11:18AM 12.5000 -70.0167 270° West  Level FlightAware Approximate
11:19AM 12.5014 -70.0152 270° West  Level Estimated
11:20AM 12.5000 -70.0167 270° West  Level FlightAware Approximate
11:21AM 12.5014 -70.0152 270° West  Level Estimated
11:22AM 12.5000 -70.0167 270° West  Level FlightAware Approximate
11:23AM 12.5014 -70.0152 270° West  Level Estimated